Time;durP1;ratioP1;P1;durP2;ratioP2;P2;SDS_P1;SDS_P2;PMS_P1;PMS_P2;Temp;Humidity;BMP_temperature;BMP_pressure;BME280_temperature;BME280_humidity;BME280_pressure;Samples;Min_cycle;Max_cycle;Signal;HPM_P1;HPM_P2
2022/05/24 00:02:04;;;;;;;20.85;13.13;;;;;;;13.93;100.00;99975.84;5075351;28;20024;-43
2022/05/24 00:04:30;;;;;;;28.35;14.13;;;;;;;13.95;100.00;99972.00;5075196;28;20106;-43
2022/05/24 00:06:56;;;;;;;21.98;13.93;;;;;;;13.97;100.00;99962.16;5056990;28;20048;-45
2022/05/24 00:09:21;;;;;;;24.77;15.30;;;;;;;14.05;100.00;99975.81;5057193;28;20082;-44
2022/05/24 00:11:46;;;;;;;24.00;15.35;;;;;;;14.04;100.00;99969.84;5075091;28;20047;-42
2022/05/24 00:14:11;;;;;;;22.73;15.93;;;;;;;14.11;100.00;99969.69;5056886;28;20021;-44
2022/05/24 00:16:37;;;;;;;25.10;16.17;;;;;;;13.99;100.00;99967.13;5074989;28;20463;-44
2022/05/24 00:19:02;;;;;;;27.75;16.83;;;;;;;13.94;100.00;99967.00;5074721;28;20035;-44
2022/05/24 00:21:28;;;;;;;29.35;17.38;;;;;;;13.99;100.00;99962.72;5074733;28;20028;-42
2022/05/24 00:23:53;;;;;;;27.80;17.52;;;;;;;13.97;100.00;99962.16;5074474;28;20032;-42
2022/05/24 00:26:29;;;;;;;28.98;18.38;;;;;;;14.03;100.00;99964.84;5074486;28;20024;-43
2022/05/24 00:28:54;;;;;;;31.45;17.63;;;;;;;13.98;100.00;99958.53;5075110;28;20028;-41
2022/05/24 00:31:20;;;;;;;27.27;17.70;;;;;;;14.17;100.00;99951.38;5074448;28;20526;-41
2022/05/24 00:33:45;;;;;;;30.33;18.20;;;;;;;14.22;100.00;99961.88;5074686;28;20379;-42
2022/05/24 00:36:10;;;;;;;30.90;17.38;;;;;;;14.16;100.00;99967.19;5074401;28;20467;-40
2022/05/24 00:38:36;;;;;;;28.65;17.95;;;;;;;14.20;100.00;99960.50;5074562;28;20024;-42
2022/05/24 00:41:26;;;;;;;25.88;17.33;;;;;;;14.17;100.00;99955.78;5074298;28;20021;-42
2022/05/24 00:44:03;;;;;;;26.90;16.45;;;;;;;14.13;100.00;99965.06;5074583;28;20028;-41
2022/05/24 00:46:53;;;;;;;23.42;16.05;;;;;;;14.15;100.00;99963.00;5074207;28;20390;-42
2022/05/24 00:49:32;;;;;;;25.33;14.88;;;;;;;14.09;100.00;99956.13;5074263;28;20044;-43
2022/05/24 00:52:03;;;;;;;23.65;14.15;;;;;;;14.06;100.00;99956.59;5074653;28;20453;-43
2022/05/24 00:54:29;;;;;;;24.10;13.65;;;;;;;14.05;100.00;99962.81;5056150;28;20063;-43
2022/05/24 00:57:12;;;;;;;21.23;13.52;;;;;;;14.09;100.00;99966.53;5074283;28;20474;-42
2022/05/24 00:59:46;;;;;;;22.80;13.35;;;;;;;14.12;100.00;99966.06;5073858;28;20024;-45
2022/05/24 01:02:12;;;;;;;20.98;13.27;;;;;;;14.13;100.00;99963.25;5073980;28;20482;-44
2022/05/24 01:04:37;;;;;;;17.92;12.35;;;;;;;14.10;100.00;99955.91;5073806;28;20031;-41
2022/05/24 01:07:03;;;;;;;24.45;12.77;;;;;;;14.02;100.00;99945.09;5073807;28;20105;-42
2022/05/24 01:09:48;;;;;;;19.13;11.50;;;;;;;14.08;100.00;99946.78;5073649;28;20032;-42
2022/05/24 01:12:27;;;;;;;19.45;11.35;;;;;;;14.04;100.00;99946.44;5073902;28;20374;-42
2022/05/24 01:14:55;;;;;;;18.45;11.35;;;;;;;14.06;100.00;99948.81;5056217;28;20048;-41
2022/05/24 01:17:20;;;;;;;18.50;10.18;;;;;;;13.92;100.00;99941.25;5073914;28;20016;-43
2022/05/24 01:19:47;;;;;;;15.93;9.68;;;;;;;13.92;100.00;99943.84;5073593;28;20177;-42
2022/05/24 01:22:35;;;;;;;16.30;8.40;;;;;;;13.92;99.35;99945.66;5073785;28;20031;-43
2022/05/24 01:25:03;;;;;;;16.77;7.95;;;;;;;13.91;99.20;99944.09;5074112;28;20028;-45
2022/05/24 01:27:29;;;;;;;19.58;8.48;;;;;;;13.97;99.56;99937.97;5073831;28;20466;-42
2022/05/24 01:29:54;;;;;;;15.30;7.82;;;;;;;13.89;99.05;99936.53;5073987;28;20099;-43
2022/05/24 01:37:47;;;;;;;19.45;8.00;;;;;;;13.92;98.63;99943.06;5073293;28;20127;-41
2022/05/24 01:40:13;;;;;;;20.00;8.52;;;;;;;13.88;98.80;99942.75;5073354;28;20083;-42
2022/05/24 01:42:38;;;;;;;19.38;8.50;;;;;;;13.83;99.11;99963.41;5073246;28;20027;-41
2022/05/24 01:45:11;;;;;;;18.05;9.90;;;;;;;13.91;99.67;99959.69;5073303;28;20028;-41
2022/05/24 01:47:40;;;;;;;20.00;11.73;;;;;;;13.83;99.39;99968.59;5056323;28;20033;-43
2022/05/24 01:50:11;;;;;;;24.63;12.35;;;;;;;13.74;99.61;99964.78;5073553;28;20032;-43
2022/05/24 01:52:47;;;;;;;30.13;13.55;;;;;;;13.76;99.16;99968.72;5055839;28;20057;-41
2022/05/24 01:55:28;;;;;;;25.48;14.05;;;;;;;13.81;97.99;99973.25;5073135;28;20063;-43
2022/05/24 01:57:57;;;;;;;24.95;12.63;;;;;;;13.71;97.59;99971.22;5073434;28;20375;-41
2022/05/24 02:00:23;;;;;;;21.70;11.88;;;;;;;13.69;97.31;99968.03;5073152;28;20032;-42
2022/05/24 02:02:48;;;;;;;29.10;11.35;;;;;;;13.52;97.22;99967.13;5073704;28;20032;-43
2022/05/24 02:05:28;;;;;;;23.25;10.73;;;;;;;13.63;96.52;99965.56;5072955;28;20522;-42
2022/05/24 02:07:53;;;;;;;22.35;10.25;;;;;;;13.43;96.49;99971.09;5072919;28;20056;-42
2022/05/24 02:10:19;;;;;;;21.90;9.38;;;;;;;13.26;97.05;99969.19;5073333;28;20116;-42
2022/05/24 02:12:49;;;;;;;22.63;9.70;;;;;;;13.30;96.69;99966.94;5072975;28;20032;-41
2022/05/24 02:15:18;;;;;;;20.50;9.35;;;;;;;13.24;96.59;99968.56;5073605;28;20519;-42
2022/05/24 02:17:54;;;;;;;20.15;8.75;;;;;;;13.39;96.82;99962.19;5072943;28;20032;-44
2022/05/24 02:20:31;;;;;;;25.45;8.70;;;;;;;13.37;96.17;99974.59;5072969;28;20055;-42
2022/05/24 02:22:56;;;;;;;17.10;7.55;;;;;;;13.30;96.02;99975.50;5072877;28;20024;-43
2022/05/24 02:25:33;;;;;;;19.92;7.38;;;;;;;13.23;96.31;99981.75;5054933;28;20074;-44
2022/05/24 02:27:59;;;;;;;20.23;7.10;;;;;;;13.17;95.68;99980.84;5072771;28;20044;-43
2022/05/24 02:30:27;;;;;;;23.42;7.75;;;;;;;13.06;95.94;99973.84;5073098;28;20031;-44
2022/05/24 02:32:53;;;;;;;16.95;6.60;;;;;;;13.13;95.17;99963.38;5055238;28;20021;-43
2022/05/24 02:35:18;;;;;;;18.52;7.50;;;;;;;13.11;95.71;99971.38;5073207;28;20524;-43
2022/05/24 02:37:44;;;;;;;18.70;6.80;;;;;;;13.07;95.10;99965.84;5072804;28;20055;-44
2022/05/24 02:42:54;;;;;;;18.48;6.40;;;;;;;13.13;94.46;99969.34;5073359;28;20047;-42
2022/05/24 02:45:19;;;;;;;18.58;7.00;;;;;;;13.17;94.65;99962.69;5072692;28;20029;-43
2022/05/24 02:47:44;;;;;;;16.00;6.70;;;;;;;13.19;93.94;99957.28;5074233;28;20032;-43
2022/05/24 02:50:11;;;;;;;16.33;7.03;;;;;;;13.14;94.50;99960.53;5076289;28;20033;-43
2022/05/24 02:52:37;;;;;;;15.35;6.57;;;;;;;13.14;93.51;99955.34;5076423;28;20044;-43
2022/05/24 02:55:05;;;;;;;17.48;6.63;;;;;;;13.02;92.97;99959.75;5076395;28;20025;-43
2022/05/24 02:57:30;;;;;;;15.38;6.97;;;;;;;13.09;93.03;99956.03;5076587;28;20157;-42
2022/05/24 02:59:56;;;;;;;23.17;6.90;;;;;;;13.07;93.40;99952.88;5076524;28;20055;-43
2022/05/24 03:02:22;;;;;;;15.98;7.03;;;;;;;13.03;93.52;99959.53;5041645;28;20086;-43
2022/05/24 03:04:47;;;;;;;17.90;6.95;;;;;;;13.08;93.69;99959.63;5076509;28;20096;-42
2022/05/24 03:09:56;;;;;;;15.02;7.38;;;;;;;13.00;93.58;99972.91;5076391;28;20382;-43
2022/05/24 03:15:06;;;;;;;18.73;7.70;;;;;;;12.88;93.90;99972.88;5076693;28;20052;-43
2022/05/24 03:17:31;;;;;;;15.95;8.20;;;;;;;12.90;93.73;99967.50;5075927;28;20112;-43
2022/05/24 03:19:57;;;;;;;19.88;8.13;;;;;;;12.82;93.60;99960.81;5058022;28;20063;-43
2022/05/24 03:22:22;;;;;;;17.10;8.15;;;;;;;12.82;94.11;99966.00;5076386;28;20035;-41
2022/05/24 03:24:47;;;;;;;20.65;8.68;;;;;;;12.83;94.95;99969.38;5075904;28;20016;-42
2022/05/24 03:27:13;;;;;;;22.80;9.07;;;;;;;12.77;94.36;99972.84;5075824;28;20475;-46
2022/05/24 03:29:44;;;;;;;19.80;9.18;;;;;;;12.79;94.57;99973.44;5075669;28;20383;-41
2022/05/24 03:32:11;;;;;;;18.85;9.15;;;;;;;12.91;94.60;99969.06;5058738;28;20390;-43
2022/05/24 03:34:37;;;;;;;29.20;10.15;;;;;;;12.88;94.41;99978.06;5075523;28;20052;-44
2022/05/24 03:37:03;;;;;;;22.00;9.50;;;;;;;12.94;94.96;99976.41;5076146;28;20077;-42
2022/05/24 03:39:28;;;;;;;16.90;9.35;;;;;;;12.94;94.25;99976.41;5075502;28;20024;-44
2022/05/24 03:41:54;;;;;;;21.10;9.77;;;;;;;12.94;95.39;99981.59;5075853;28;20020;-41
2022/05/24 03:44:19;;;;;;;22.30;9.50;;;;;;;12.95;94.40;99974.63;5075657;28;20374;-43
2022/05/24 03:46:45;;;;;;;15.15;9.13;;;;;;;12.90;95.07;99992.63;5075467;28;20543;-43
2022/05/24 03:49:10;;;;;;;23.75;9.93;;;;;;;12.86;94.95;99990.50;5075336;28;20483;-43
2022/05/24 03:51:35;;;;;;;19.05;9.38;;;;;;;12.88;95.37;99998.03;5075640;28;20107;-42
2022/05/24 03:54:01;;;;;;;22.33;9.68;;;;;;;12.80;95.40;99991.38;5075308;28;20036;-43
2022/05/24 03:56:26;;;;;;;20.48;9.63;;;;;;;12.88;94.53;99996.22;5075073;28;20052;-43
2022/05/24 03:58:53;;;;;;;22.80;9.43;;;;;;;12.87;95.36;100001.66;5074785;28;20024;-44
2022/05/24 04:01:18;;;;;;;20.83;9.15;;;;;;;12.86;95.46;99992.31;5056919;28;20063;-43
2022/05/24 04:03:44;;;;;;;21.88;9.73;;;;;;;12.78;95.50;100000.38;5075134;28;20052;-43
2022/05/24 04:06:10;;;;;;;25.25;9.82;;;;;;;12.76;95.60;99998.00;5074790;28;20456;-47
2022/05/24 04:08:35;;;;;;;21.20;9.48;;;;;;;12.70;95.06;99998.88;5075114;28;20368;-44
2022/05/24 04:11:06;;;;;;;18.95;8.98;;;;;;;12.67;94.98;100012.28;5075074;28;20486;-44
2022/05/24 04:13:32;;;;;;;20.67;9.20;;;;;;;12.77;95.45;100012.53;5075080;28;20028;-42
2022/05/24 04:15:57;;;;;;;23.45;8.95;;;;;;;12.68;94.93;100010.47;5074828;28;20111;-44
2022/05/24 04:18:23;;;;;;;19.75;9.35;;;;;;;12.76;95.42;99999.81;5074889;28;20028;-43
2022/05/24 04:20:49;;;;;;;24.23;9.52;;;;;;;12.78;95.03;100003.75;5074785;28;20043;-41
2022/05/24 04:23:14;;;;;;;27.00;9.60;;;;;;;12.81;94.14;100007.72;5057083;28;20039;-42
2022/05/24 04:25:41;;;;;;;21.92;9.00;;;;;;;12.94;95.32;100007.53;5074757;28;20027;-43
2022/05/24 04:28:06;;;;;;;21.17;9.38;;;;;;;12.92;93.31;100001.78;5074823;28;20467;-42
2022/05/24 04:30:33;;;;;;;15.82;9.10;;;;;;;12.97;94.14;100020.03;5056873;28;20028;-44
2022/05/24 04:32:58;;;;;;;23.38;9.95;;;;;;;12.94;93.21;100020.50;5075140;28;20028;-42
2022/05/24 04:35:24;;;;;;;19.23;9.43;;;;;;;13.01;93.61;100021.19;5074447;28;20107;-42
2022/05/24 04:37:49;;;;;;;19.55;9.18;;;;;;;12.99;93.29;100015.44;5056944;28;20029;-42
2022/05/24 04:40:15;;;;;;;21.02;9.48;;;;;;;12.99;93.59;100020.63;5056260;28;20035;-42
2022/05/24 04:42:41;;;;;;;19.00;9.68;;;;;;;13.02;93.75;100020.19;5074900;28;20467;-43
2022/05/24 04:45:13;;;;;;;19.38;9.18;;;;;;;13.01;92.78;100025.59;5074268;28;20053;-42
2022/05/24 04:47:38;;;;;;;24.43;9.17;;;;;;;13.01;92.58;100017.81;5074225;28;20081;-42
2022/05/24 04:50:08;;;;;;;19.10;9.80;;;;;;;12.92;93.24;100014.75;5056258;28;20032;-42
2022/05/24 04:52:36;;;;;;;18.75;8.73;;;;;;;13.03;93.16;100020.97;5074380;28;20120;-43
2022/05/24 04:55:07;;;;;;;19.08;8.90;;;;;;;12.93;93.46;100028.50;5074247;28;20062;-43
2022/05/24 04:57:33;;;;;;;22.20;8.98;;;;;;;12.89;92.88;100010.00;5074043;28;20032;-42
2022/05/24 04:59:58;;;;;;;19.60;9.20;;;;;;;12.93;92.91;100005.94;5073994;28;20028;-41
2022/05/24 05:02:24;;;;;;;19.27;9.45;;;;;;;12.93;93.10;100018.91;5039340;28;20490;-44
2022/05/24 05:04:50;;;;;;;22.80;9.98;;;;;;;12.96;93.56;100025.47;5055924;28;20115;-42
2022/05/24 05:07:19;;;;;;;22.58;9.88;;;;;;;12.98;94.12;100034.59;5073967;28;20469;-43
2022/05/24 05:09:44;;;;;;;21.55;9.60;;;;;;;13.09;93.08;100052.03;5055880;28;20027;-42
2022/05/24 05:12:11;;;;;;;19.60;9.70;;;;;;;13.15;93.25;100062.50;5073851;28;20031;-43
2022/05/24 05:14:38;;;;;;;18.95;9.32;;;;;;;13.12;91.75;100066.34;5073560;28;20126;-44
2022/05/24 05:17:04;;;;;;;19.20;9.75;;;;;;;13.12;91.88;100057.75;5072913;28;20020;-43
2022/05/24 05:19:30;;;;;;;21.75;9.75;;;;;;;13.23;91.58;100051.81;5074242;28;20040;-44
2022/05/24 05:21:56;;;;;;;20.58;10.05;;;;;;;13.12;91.52;100055.97;5073503;28;20075;-43
2022/05/24 05:24:21;;;;;;;19.67;9.15;;;;;;;13.06;92.09;100059.44;5073566;28;20032;-43
2022/05/24 05:26:47;;;;;;;21.00;8.88;;;;;;;13.07;92.46;100074.00;5073465;28;20027;-43
2022/05/24 05:29:12;;;;;;;21.88;9.30;;;;;;;13.04;92.46;100064.06;5072451;28;20050;-43
2022/05/24 05:31:37;;;;;;;24.50;9.23;;;;;;;13.00;91.71;100070.69;5074019;28;20371;-42
2022/05/24 05:34:03;;;;;;;18.33;9.18;;;;;;;13.06;91.59;100077.59;5073288;28;20450;-44
2022/05/24 05:36:30;;;;;;;21.70;8.90;;;;;;;13.08;91.25;100086.72;5073373;28;20024;-45
2022/05/24 05:38:56;;;;;;;17.63;8.23;;;;;;;13.09;90.87;100096.13;5073347;28;20021;-43
2022/05/24 05:41:31;;;;;;;16.20;7.60;;;;;;;13.09;90.83;100100.53;5073263;28;20020;-44
2022/05/24 05:43:58;;;;;;;14.90;6.68;;;;;;;13.09;91.08;100098.72;5073095;28;20121;-42
2022/05/24 05:46:24;;;;;;;13.25;6.47;;;;;;;13.02;90.10;100095.41;5073462;28;20021;-43
2022/05/24 05:48:49;;;;;;;15.45;5.78;;;;;;;13.02;90.18;100099.78;5073850;28;20173;-42
2022/05/24 05:51:16;;;;;;;13.30;6.13;;;;;;;13.01;90.97;100104.19;5073329;28;20461;-43
2022/05/24 05:53:42;;;;;;;20.25;5.93;;;;;;;13.10;90.25;100104.69;5073364;28;20060;-44
2022/05/24 05:56:13;;;;;;;15.27;5.60;;;;;;;13.42;88.64;100100.06;5073923;28;20020;-44
2022/05/24 05:58:38;;;;;;;15.55;4.90;;;;;;;13.60;87.93;100104.41;5073276;28;20024;-44
2022/05/24 06:01:03;;;;;;;16.60;5.65;;;;;;;13.48;87.10;100096.59;5073111;28;20017;-43
2022/05/24 06:03:30;;;;;;;13.27;5.70;;;;;;;13.30;87.85;100105.22;5073306;28;20099;-44
2022/05/24 06:05:59;;;;;;;17.23;5.38;;;;;;;13.19;87.89;100099.97;5073372;28;20075;-43
2022/05/24 06:08:25;;;;;;;12.50;4.85;;;;;;;13.40;87.14;100098.72;5072998;28;20032;-45
2022/05/24 06:10:51;;;;;;;13.75;5.00;;;;;;;13.38;88.42;100096.34;5073550;28;20151;-43
2022/05/24 06:13:16;;;;;;;16.35;4.60;;;;;;;13.48;86.67;100114.75;5072890;28;20374;-43
2022/05/24 06:15:42;;;;;;;10.70;4.45;;;;;;;13.62;87.01;100111.97;5073226;28;20040;-44
2022/05/24 06:18:07;;;;;;;16.88;4.90;;;;;;;13.67;85.69;100123.28;5073183;28;20031;-44
2022/05/24 06:20:33;;;;;;;15.48;4.65;;;;;;;13.36;86.68;100128.72;5073441;28;20016;-42
2022/05/24 06:22:59;;;;;;;11.10;4.50;;;;;;;13.49;86.09;100133.72;5075067;28;20027;-43
2022/05/24 06:25:29;;;;;;;14.10;4.78;;;;;;;14.66;80.69;100139.00;5077183;28;20016;-42
2022/05/24 06:27:56;;;;;;;13.07;4.53;;;;;;;17.37;69.28;100134.44;5076824;28;20024;-43
2022/05/24 06:30:23;;;;;;;13.95;4.40;;;;;;;14.75;78.36;100134.22;5076632;28;20028;-43
2022/05/24 06:32:50;;;;;;;13.32;4.55;;;;;;;14.21;80.86;100123.19;5077000;28;20398;-44
2022/05/24 06:35:16;;;;;;;10.55;4.32;;;;;;;14.44;80.36;100145.78;5076556;28;20050;-42
2022/05/24 06:37:41;;;;;;;9.43;4.30;;;;;;;15.23;77.32;100145.28;5076968;28;20047;-44
2022/05/24 06:40:14;;;;;;;9.75;4.40;;;;;;;20.17;62.40;100141.81;5077216;28;20044;-43
2022/05/24 06:42:39;;;;;;;10.10;4.03;;;;;;;16.53;69.26;100135.59;5077123;28;20406;-41
2022/05/24 06:45:05;;;;;;;11.77;4.00;;;;;;;15.61;73.92;100136.84;5076468;28;20032;-42
2022/05/24 06:47:31;;;;;;;9.80;4.57;;;;;;;17.57;68.01;100144.28;5076712;28;20423;-42
2022/05/24 06:49:57;;;;;;;11.43;4.53;;;;;;;20.47;58.54;100143.56;5076407;28;20099;-43
2022/05/24 06:52:23;;;;;;;11.52;4.55;;;;;;;19.95;57.02;100167.56;5076836;28;20078;-43
2022/05/24 06:54:48;;;;;;;16.58;4.53;;;;;;;20.31;57.57;100159.59;5076634;28;20107;-47
2022/05/24 06:57:14;;;;;;;13.15;4.30;;;;;;;20.69;54.31;100161.63;5076428;28;20023;-42
2022/05/24 07:02:27;;;;;;;11.82;4.70;;;;;;;15.87;72.82;100158.13;5038405;28;20515;-43
2022/05/24 07:05:01;;;;;;;11.85;4.85;;;;;;;16.31;69.83;100164.25;5076129;28;20024;-41
2022/05/24 07:07:28;;;;;;;11.13;4.90;;;;;;;14.99;73.86;100168.00;5076133;28;20048;-42
2022/05/24 07:09:53;;;;;;;10.07;4.50;;;;;;;14.85;76.55;100170.88;5076623;28;20427;-44
2022/05/24 07:12:20;;;;;;;12.52;4.35;;;;;;;14.50;77.50;100167.47;5075937;28;20016;-43
2022/05/24 07:14:46;;;;;;;14.75;4.75;;;;;;;14.29;78.51;100185.22;5075852;28;20039;-43
2022/05/24 07:17:11;;;;;;;10.25;4.30;;;;;;;14.35;78.03;100186.91;5075697;28;20032;-42
2022/05/24 07:19:38;;;;;;;9.23;4.55;;;;;;;14.32;78.50;100197.78;5076067;28;20481;-42
2022/05/24 07:22:04;;;;;;;8.18;4.10;;;;;;;14.25;77.96;100191.91;5075751;28;20375;-42
2022/05/24 07:24:30;;;;;;;9.82;4.20;;;;;;;14.47;76.84;100186.91;5058006;28;20029;-47
2022/05/24 07:26:55;;;;;;;13.60;4.10;;;;;;;14.82;76.51;100196.56;5057680;28;20028;-42
2022/05/24 07:29:21;;;;;;;11.27;4.00;;;;;;;14.89;74.67;100203.19;5075790;28;20528;-43
2022/05/24 07:31:46;;;;;;;9.70;3.90;;;;;;;14.80;75.36;100196.75;5076346;28;20021;-43
2022/05/24 07:34:12;;;;;;;7.95;3.65;;;;;;;14.49;77.18;100203.09;5074123;28;20024;-43
2022/05/24 07:36:37;;;;;;;9.90;4.38;;;;;;;14.07;81.29;100212.75;5075461;28;20377;-42
2022/05/24 07:39:02;;;;;;;12.93;5.00;;;;;;;13.74;87.23;100227.81;5075506;28;20024;-43
2022/05/24 07:46:56;;;;;;;7.35;3.35;;;;;;;13.61;89.07;100228.03;5075631;28;20078;-41
2022/05/24 07:49:21;;;;;;;6.22;3.17;;;;;;;13.46;87.58;100238.75;5075916;28;20032;-43
2022/05/24 07:51:47;;;;;;;10.07;3.50;;;;;;;13.82;88.86;100234.53;5075543;28;20030;-42
2022/05/24 07:54:12;;;;;;;7.38;3.40;;;;;;;13.90;87.15;100233.41;5075257;28;20055;-42
2022/05/24 07:56:37;;;;;;;6.95;3.40;;;;;;;14.30;86.46;100251.00;5075236;28;20115;-43
2022/05/24 07:59:02;;;;;;;7.70;3.20;;;;;;;14.70;83.97;100245.16;5074975;28;20363;-43
2022/05/24 08:01:28;;;;;;;7.22;2.50;;;;;;;14.74;83.84;100251.50;5075122;28;20017;-42
2022/05/24 08:03:53;;;;;;;5.88;2.13;;;;;;;14.79;81.10;100252.41;5074550;28;20494;-42
2022/05/24 08:06:18;;;;;;;4.90;1.75;;;;;;;14.36;80.80;100245.72;5074814;28;20060;-42
2022/05/24 08:08:44;;;;;;;4.57;1.98;;;;;;;14.40;81.98;100261.63;5074970;28;20030;-42
2022/05/24 08:11:10;;;;;;;3.50;1.80;;;;;;;14.03;80.33;100254.00;5074936;28;20056;-42
2022/05/24 08:13:36;;;;;;;5.82;1.85;;;;;;;13.94;80.47;100260.53;5074972;28;20467;-43
2022/05/24 08:16:02;;;;;;;4.07;1.80;;;;;;;13.84;82.58;100266.25;5074871;28;20082;-43
2022/05/24 08:18:28;;;;;;;4.90;1.85;;;;;;;13.86;83.26;100266.81;5074564;28;20056;-43
2022/05/24 08:20:54;;;;;;;6.93;1.95;;;;;;;14.03;82.24;100266.19;5075282;28;20016;-43
2022/05/24 08:23:22;;;;;;;3.45;1.70;;;;;;;14.30;79.61;100272.59;5074252;28;20107;-42
2022/05/24 08:25:47;;;;;;;3.13;1.98;;;;;;;15.22;79.52;100274.66;5074650;28;20032;-45
2022/05/24 08:28:12;;;;;;;6.20;1.90;;;;;;;16.07;74.12;100272.31;5075154;28;20043;-43
2022/05/24 08:30:39;;;;;;;5.07;1.77;;;;;;;16.53;72.56;100273.84;5074637;28;20478;-41
2022/05/24 08:33:05;;;;;;;4.35;1.45;;;;;;;16.52;72.29;100259.22;5074772;28;20056;-44
2022/05/24 08:35:33;;;;;;;3.42;1.58;;;;;;;16.32;73.10;100258.91;5074747;28;20427;-43
2022/05/24 08:37:59;;;;;;;2.45;1.63;;;;;;;16.87;71.78;100266.78;5074370;28;20031;-43
2022/05/24 08:40:25;;;;;;;2.17;1.10;;;;;;;16.49;70.50;100270.13;5074876;28;20032;-43
2022/05/24 08:43:11;;;;;;;4.53;1.50;;;;;;;17.01;75.92;100264.63;5074804;28;20375;-42
2022/05/24 08:48:36;;;;;;;5.75;1.35;;;;;;;18.02;67.55;100266.75;5075043;28;20430;-43
2022/05/24 08:51:16;;;;;;;1.73;1.02;;;;;;;17.65;67.34;100281.53;5074101;28;20382;-41
2022/05/24 08:53:46;;;;;;;4.65;1.40;;;;;;;17.73;67.53;100284.50;5074322;28;20551;-44
2022/05/24 08:56:28;;;;;;;3.05;1.48;;;;;;;17.54;68.81;100285.84;5074295;28;20174;-43
2022/05/24 08:59:06;;;;;;;6.40;1.67;;;;;;;17.55;67.34;100282.19;5074477;28;20451;-43
2022/05/24 09:01:34;;;;;;;3.03;1.30;;;;;;;16.27;70.91;100290.13;5074262;28;20475;-42
2022/05/24 09:04:01;;;;;;;6.43;1.50;;;;;;;15.75;71.24;100294.44;5073857;28;20429;-42
2022/05/24 09:07:01;;;;;;;4.63;1.40;;;;;;;15.75;68.86;100302.25;5073858;28;20052;-41
2022/05/24 09:09:35;;;;;;;6.20;1.48;;;;;;;16.00;67.70;100312.34;5073933;28;20028;-47
2022/05/24 09:12:17;;;;;;;3.15;1.45;;;;;;;16.44;68.74;100304.72;5074141;28;20367;-42
2022/05/24 09:15:06;;;;;;;5.47;1.35;;;;;;;16.12;69.71;100314.91;5055772;28;20032;-42
2022/05/24 09:18:00;;;;;;;6.07;1.52;;;;;;;15.59;74.31;100339.41;5073925;28;20036;-44
2022/05/24 09:20:35;;;;;;;3.25;1.30;;;;;;;14.57;81.00;100343.19;5073864;28;20028;-42
2022/05/24 09:23:39;;;;;;;2.15;1.20;;;;;;;14.10;86.14;100352.66;5073927;28;20458;-44
2022/05/24 09:26:11;;;;;;;2.42;1.42;;;;;;;14.23;85.95;100358.44;5055243;28;20049;-43
2022/05/24 09:28:57;;;;;;;3.28;1.55;;;;;;;14.64;85.43;100343.91;5073553;28;20170;-44
2022/05/24 09:31:39;;;;;;;4.80;1.70;;;;;;;15.11;85.07;100358.75;5073320;28;20025;-44
2022/05/24 09:34:27;;;;;;;5.93;1.50;;;;;;;15.47;83.98;100355.06;5073617;28;20347;-44
2022/05/24 09:36:54;;;;;;;3.28;1.80;;;;;;;16.20;80.00;100368.47;5073209;28;20024;-43
2022/05/24 09:39:30;;;;;;;8.02;2.13;;;;;;;16.62;75.55;100362.91;5073549;28;20025;-44
2022/05/24 09:42:00;;;;;;;8.07;2.20;;;;;;;17.18;75.05;100355.16;5073358;28;20029;-43
2022/05/24 09:44:28;;;;;;;4.28;1.98;;;;;;;16.48;73.03;100378.06;5073246;28;20021;-45
2022/05/24 09:46:55;;;;;;;6.88;2.60;;;;;;;17.50;70.48;100373.59;5073343;28;20027;-43
2022/05/24 09:49:31;;;;;;;4.13;2.17;;;;;;;17.43;68.95;100375.56;5055766;28;20115;-43
2022/05/24 09:52:07;;;;;;;6.40;2.55;;;;;;;16.97;72.17;100386.16;5073120;28;20036;-44
2022/05/24 09:54:33;;;;;;;4.68;2.42;;;;;;;15.66;77.88;100401.81;5073445;28;20028;-43
2022/05/24 09:57:10;;;;;;;4.72;2.30;;;;;;;15.18;84.23;100406.25;5072899;28;20028;-44
2022/05/24 09:59:39;;;;;;;7.97;2.60;;;;;;;15.05;84.48;100414.28;5073099;28;20016;-45
2022/05/24 10:02:32;;;;;;;5.80;2.00;;;;;;;15.27;82.96;100417.13;5073406;28;20033;-45
2022/05/24 10:04:58;;;;;;;6.25;2.10;;;;;;;15.54;81.62;100410.44;5073139;28;20024;-43
2022/05/24 10:07:31;;;;;;;3.38;1.70;;;;;;;15.66;79.07;100414.84;5072865;28;20036;-42
2022/05/24 10:10:14;;;;;;;5.90;2.10;;;;;;;17.37;77.75;100432.97;5072637;28;20029;-43
2022/05/24 10:12:56;;;;;;;3.53;1.90;;;;;;;17.14;74.45;100435.75;5072736;28;20173;-43
2022/05/24 10:15:47;;;;;;;6.00;2.10;;;;;;;16.32;77.24;100438.81;5073041;28;20077;-42
2022/05/24 10:18:38;;;;;;;4.40;2.10;;;;;;;15.58;78.43;100442.00;5073049;28;20043;-44
2022/05/24 10:21:03;;;;;;;5.82;1.95;;;;;;;15.11;77.38;100460.22;5073075;28;20028;-42
2022/05/24 10:23:58;;;;;;;6.07;2.37;;;;;;;14.63;80.58;100450.72;5073106;28;20020;-43
2022/05/24 10:26:52;;;;;;;5.22;2.40;;;;;;;14.64;79.60;100460.09;5072706;28;20322;-43
2022/05/24 10:29:47;;;;;;;8.05;2.90;;;;;;;14.68;79.95;100470.88;5073060;28;20111;-42
2022/05/24 10:38:18;;;;;;;9.63;2.50;;;;;;;15.33;80.13;100484.72;5073034;28;20036;-44
2022/05/24 10:40:53;;;;;;;5.63;2.55;;;;;;;15.41;78.48;100486.16;5073039;28;20024;-42
2022/05/24 10:43:47;;;;;;;6.85;2.53;;;;;;;15.95;79.12;100483.47;5073291;28;20482;-43
2022/05/24 10:46:20;;;;;;;6.90;2.70;;;;;;;16.89;76.77;100485.78;5073036;28;20080;-42
2022/05/24 10:48:54;;;;;;;6.93;2.67;;;;;;;17.92;73.58;100481.00;5072128;28;20495;-43
2022/05/24 10:51:28;;;;;;;6.00;2.70;;;;;;;18.34;70.72;100484.91;5072571;28;20016;-44
2022/05/24 10:53:58;;;;;;;4.78;2.58;;;;;;;18.51;69.53;100482.19;5072566;28;20031;-42
2022/05/24 10:56:32;;;;;;;5.45;2.20;;;;;;;18.01;67.01;100478.75;5072572;28;20025;-43
2022/05/24 10:59:11;;;;;;;6.68;3.10;;;;;;;17.55;70.89;100478.13;5055488;28;20107;-42
2022/05/24 11:01:52;;;;;;;5.30;2.70;;;;;;;16.53;69.87;100479.88;5072418;28;20390;-44
2022/05/24 11:04:25;;;;;;;9.48;2.83;;;;;;;16.06;72.54;100477.44;5072565;28;20108;-43
2022/05/24 11:07:03;;;;;;;;;;;;;;;15.50;74.04;100484.03;5072595;28;20109;-46
2022/05/24 11:09:32;;;;;;;8.23;2.85;;;;;;;15.49;78.70;100467.59;5074284;28;20422;-43
2022/05/24 11:12:04;;;;;;;9.15;3.60;;;;;;;15.26;80.97;100484.00;5076190;28;20494;-44
2022/05/24 11:14:41;;;;;;;6.70;3.22;;;;;;;15.73;77.74;100486.66;5076686;28;20040;-41
2022/05/24 11:17:10;;;;;;;8.10;3.60;;;;;;;16.16;73.78;100490.66;5075760;28;20047;-40
2022/05/24 11:19:38;;;;;;;7.35;3.65;;;;;;;16.05;77.35;100488.06;5075977;28;20027;-41
2022/05/24 11:22:38;;;;;;;10.38;3.47;;;;;;;16.68;74.05;100503.63;5076106;28;20024;-44
2022/05/24 11:25:21;;;;;;;4.60;2.40;;;;;;;16.99;69.71;100501.59;5075938;28;20024;-43
2022/05/24 11:27:50;;;;;;;4.68;2.25;;;;;;;18.14;68.07;100501.94;5075579;28;20052;-42
2022/05/24 11:30:36;;;;;;;3.13;2.00;;;;;;;19.08;67.18;100510.50;5075374;28;20028;-42
2022/05/24 11:33:24;;;;;;;4.82;2.30;;;;;;;18.61;61.71;100506.63;5075379;28;20111;-42
2022/05/24 11:35:52;;;;;;;6.57;2.30;;;;;;;18.19;67.06;100506.44;5074419;28;20020;-44
2022/05/24 11:38:23;;;;;;;6.30;2.40;;;;;;;17.58;66.01;100509.03;5075472;28;20058;-42
2022/05/24 11:40:54;;;;;;;5.63;2.40;;;;;;;17.54;66.62;100518.38;5074140;28;20024;-41
2022/05/24 11:43:34;;;;;;;6.97;2.90;;;;;;;17.69;67.40;100521.19;5074741;28;20020;-43
2022/05/24 11:46:37;;;;;;;7.30;2.42;;;;;;;18.17;65.25;100535.44;5075251;28;20100;-43
2022/05/24 11:49:09;;;;;;;5.95;2.10;;;;;;;18.08;62.76;100526.44;5056069;28;20063;-42
2022/05/24 11:51:42;;;;;;;;;;;;;;;18.08;60.87;100541.34;5075845;28;20027;-47
2022/05/24 11:54:18;;;;;;;4.72;1.83;;;;;;;18.03;60.50;100527.16;5075534;28;19908;-42
2022/05/24 11:56:54;;;;;;;5.78;2.00;;;;;;;17.65;62.39;100529.75;5074899;28;20457;-41
2022/05/24 11:59:38;;;;;;;8.27;2.00;;;;;;;18.21;62.36;100533.13;5075613;28;20051;-41
2022/05/24 12:02:19;;;;;;;5.10;1.75;;;;;;;18.94;61.00;100529.22;5056995;28;20039;-41
2022/05/24 12:08:10;;;;;;;;;;;;;;;18.21;60.40;100546.22;5075795;28;20098;-43
2022/05/24 12:10:39;;;;;;;5.93;1.67;;;;;;;18.22;59.41;100551.22;5071761;28;19912;-42